Time;durP1;ratioP1;P1;durP2;ratioP2;P2;SDS_P1;SDS_P2;PMS_P1;PMS_P2;Temp;Humidity;BMP_temperature;BMP_pressure;BME280_temperature;BME280_humidity;BME280_pressure;Samples;Min_cycle;Max_cycle;Signal;HPM_P1;HPM_P2
2021/05/31 00:00:32;;;;;;;12.80;9.38;;;;;;;16.68;81.80;99725.38;5097990;28;20374;-66
2021/05/31 00:02:57;;;;;;;12.00;10.07;;;;;;;16.52;82.23;99722.00;5098670;28;20032;-66
2021/05/31 00:05:25;;;;;;;16.35;9.30;;;;;;;16.52;81.95;99729.19;5097976;28;20302;-67
2021/05/31 00:07:52;;;;;;;12.50;9.95;;;;;;;16.38;82.95;99724.81;5098517;28;20027;-66
2021/05/31 00:10:18;;;;;;;12.90;9.55;;;;;;;16.26;82.42;99720.03;5098324;28;20032;-66
2021/05/31 00:12:44;;;;;;;11.80;9.15;;;;;;;16.24;82.63;99726.63;5097693;28;20035;-66
2021/05/31 00:15:09;;;;;;;12.23;9.18;;;;;;;16.25;82.79;99726.41;5098765;28;20036;-66
2021/05/31 00:17:35;;;;;;;12.82;9.52;;;;;;;16.27;82.37;99719.03;5097721;28;20036;-66
2021/05/31 00:20:02;;;;;;;13.52;9.48;;;;;;;16.31;82.58;99721.28;5098106;28;20066;-66
2021/05/31 00:22:28;;;;;;;13.82;9.75;;;;;;;16.36;81.83;99721.53;5098689;28;20083;-66
2021/05/31 00:24:53;;;;;;;12.52;8.85;;;;;;;16.35;82.60;99717.19;5097945;28;20368;-67
2021/05/31 00:27:19;;;;;;;11.45;8.98;;;;;;;15.95;82.70;99684.97;5098003;28;20012;-66
2021/05/31 00:29:44;;;;;;;10.38;9.00;;;;;;;16.21;82.83;99722.50;5098813;28;20040;-66
2021/05/31 00:32:10;;;;;;;12.35;8.50;;;;;;;16.21;82.72;99713.66;5097848;28;20039;-66
2021/05/31 00:34:36;;;;;;;13.65;9.30;;;;;;;16.18;82.13;99720.22;5094504;28;20027;-66
2021/05/31 00:37:02;;;;;;;10.95;8.77;;;;;;;16.14;83.29;99716.28;5098457;28;20024;-66
2021/05/31 00:39:28;;;;;;;10.05;8.25;;;;;;;16.09;82.92;99716.06;5100795;28;20051;-66
2021/05/31 00:41:54;;;;;;;11.85;8.82;;;;;;;16.00;82.96;99708.41;5100763;28;20091;-67
2021/05/31 00:44:22;;;;;;;16.65;9.57;;;;;;;16.07;82.86;99703.94;5098244;28;20032;-66
2021/05/31 00:46:49;;;;;;;12.15;9.00;;;;;;;16.11;83.48;99705.19;5097233;28;20066;-65
2021/05/31 00:49:20;;;;;;;13.25;8.60;;;;;;;15.98;82.92;99700.59;5097527;28;20039;-66
2021/05/31 00:51:46;;;;;;;14.35;9.02;;;;;;;16.00;82.86;99708.41;5098542;28;20337;-66
2021/05/31 00:54:12;;;;;;;9.18;8.05;;;;;;;15.94;83.11;99697.50;5097866;28;20069;-66
2021/05/31 00:56:40;;;;;;;10.02;8.25;;;;;;;15.82;83.49;99700.94;5097261;28;20073;-66
2021/05/31 00:59:06;;;;;;;9.95;8.13;;;;;;;15.83;83.75;99694.56;5098963;28;20047;-66
2021/05/31 01:01:32;;;;;;;11.30;8.63;;;;;;;15.96;83.69;99697.31;5101322;28;20183;-67
2021/05/31 01:03:57;;;;;;;11.68;8.07;;;;;;;16.04;82.13;99696.31;5100861;28;20206;-65
2021/05/31 01:06:28;;;;;;;10.88;7.85;;;;;;;15.96;83.22;99684.78;5102345;28;20056;-66
2021/05/31 01:09:26;;;;;;;11.80;7.85;;;;;;;15.91;83.24;99687.22;5101469;28;20035;-66
2021/05/31 01:12:24;;;;;;;10.68;8.63;;;;;;;16.05;83.01;99688.09;5098118;28;20333;-66
2021/05/31 01:15:09;;;;;;;12.48;8.30;;;;;;;15.89;83.23;99689.25;5100499;28;20150;-66
2021/05/31 01:17:41;;;;;;;;;;;;;;;15.82;83.06;99687.59;5102965;28;20028;-66
2021/05/31 01:20:29;;;;;;;11.25;8.27;;;;;;;15.85;83.21;99677.31;5101635;28;19915;-66
2021/05/31 01:22:56;;;;;;;12.35;7.82;;;;;;;15.60;83.31;99682.31;5101229;28;20074;-66
2021/05/31 01:25:33;;;;;;;14.07;9.00;;;;;;;15.62;84.28;99680.28;5100831;28;20036;-66
2021/05/31 01:28:20;;;;;;;11.82;8.48;;;;;;;15.54;84.97;99682.22;5100517;28;20099;-66
2021/05/31 01:30:49;;;;;;;13.93;9.20;;;;;;;15.63;84.93;99676.59;5100813;28;20032;-66
2021/05/31 01:33:19;;;;;;;12.45;8.50;;;;;;;15.59;85.13;99674.47;5100395;28;20367;-67
2021/05/31 01:35:46;;;;;;;14.38;8.75;;;;;;;15.55;84.69;99663.34;5101508;28;20214;-66
2021/05/31 01:38:15;;;;;;;14.98;9.00;;;;;;;15.51;84.44;99662.09;5101191;28;20053;-66
2021/05/31 01:40:41;;;;;;;10.55;7.90;;;;;;;15.54;84.34;99672.38;5100592;28;20047;-66
2021/05/31 01:43:08;;;;;;;11.60;7.97;;;;;;;15.52;84.17;99679.75;5098100;28;20024;-66
2021/05/31 01:45:34;;;;;;;9.82;6.72;;;;;;;15.40;84.27;99669.81;5100223;28;20085;-66
2021/05/31 01:48:00;;;;;;;17.55;8.50;;;;;;;15.43;85.22;99670.25;5100394;28;20031;-66
2021/05/31 01:50:28;;;;;;;10.50;8.10;;;;;;;15.38;85.21;99669.19;5101551;28;20296;-66
2021/05/31 01:52:54;;;;;;;12.30;8.32;;;;;;;15.34;84.95;99666.06;5100009;28;20044;-66
2021/05/31 01:55:21;;;;;;;10.82;8.13;;;;;;;15.18;85.21;99667.19;5100623;28;20099;-66
2021/05/31 01:57:48;;;;;;;12.13;8.05;;;;;;;15.16;85.46;99671.06;5100622;28;20031;-66
2021/05/31 02:00:15;;;;;;;11.80;7.97;;;;;;;15.17;86.16;99660.22;5099765;28;20048;-66
2021/05/31 02:02:41;;;;;;;11.80;8.63;;;;;;;15.10;86.38;99666.50;5097262;28;20189;-66
2021/05/31 02:05:11;;;;;;;16.73;9.00;;;;;;;15.18;86.65;99658.38;5100730;28;20095;-66
2021/05/31 02:07:40;;;;;;;11.63;8.10;;;;;;;15.20;86.21;99659.00;5099719;28;20321;-66
2021/05/31 02:10:10;;;;;;;13.93;8.32;;;;;;;15.27;85.94;99658.03;5099954;28;20272;-67
2021/05/31 02:12:59;;;;;;;11.90;8.63;;;;;;;15.26;86.19;99660.88;5083029;28;20290;-66
2021/05/31 02:15:49;;;;;;;13.35;8.93;;;;;;;15.15;86.40;99653.41;5094161;28;20043;-66
2021/05/31 02:18:29;;;;;;;12.43;8.10;;;;;;;15.19;86.19;99655.50;5092300;28;20035;-66
2021/05/31 02:21:03;;;;;;;11.40;8.25;;;;;;;15.24;86.45;99661.09;5104493;28;20032;-66
2021/05/31 02:23:30;;;;;;;10.68;7.78;;;;;;;15.23;86.31;99662.09;5102949;28;20042;-67
2021/05/31 02:25:56;;;;;;;12.77;8.52;;;;;;;15.21;86.24;99656.13;5104199;28;20036;-66
2021/05/31 02:28:23;;;;;;;11.60;8.27;;;;;;;15.09;86.37;99654.19;5101652;28;20050;-66
2021/05/31 02:30:48;;;;;;;18.55;8.60;;;;;;;15.12;87.36;99648.47;5100520;28;20039;-67
2021/05/31 02:33:14;;;;;;;11.63;8.32;;;;;;;15.29;86.70;99653.31;5099229;28;20099;-66
2021/05/31 02:35:39;;;;;;;14.00;8.02;;;;;;;15.20;86.82;99664.34;5099506;28;20036;-67
2021/05/31 02:38:07;;;;;;;12.98;7.78;;;;;;;15.28;86.28;99670.34;5100269;28;20050;-66
2021/05/31 02:40:34;;;;;;;13.77;7.18;;;;;;;15.21;86.62;99669.47;5099521;28;20032;-66
2021/05/31 02:43:03;;;;;;;9.70;7.25;;;;;;;15.14;86.41;99673.94;5099152;28;20058;-66
2021/05/31 02:45:29;;;;;;;10.07;7.28;;;;;;;15.09;86.50;99668.34;5099311;28;20289;-63
2021/05/31 02:47:58;;;;;;;10.02;6.63;;;;;;;15.14;86.61;99670.44;5098931;28;20051;-67
2021/05/31 02:50:24;;;;;;;7.32;6.25;;;;;;;15.00;87.06;99685.50;5099341;28;20016;-66
2021/05/31 02:52:50;;;;;;;9.43;6.45;;;;;;;15.06;86.82;99679.41;5099731;28;20088;-63
2021/05/31 02:55:18;;;;;;;9.00;6.75;;;;;;;15.07;86.04;99681.06;5098952;28;20047;-64
2021/05/31 02:57:45;;;;;;;10.30;6.35;;;;;;;15.05;85.60;99682.25;5099020;28;20034;-63
2021/05/31 03:00:13;;;;;;;10.13;6.10;;;;;;;15.08;85.70;99682.69;5100147;28;20078;-66
2021/05/31 03:02:39;;;;;;;7.20;5.60;;;;;;;15.00;85.89;99674.84;5098567;28;20621;-63
2021/05/31 03:05:06;;;;;;;7.88;5.65;;;;;;;15.02;86.49;99681.63;5098916;28;20229;-66
2021/05/31 03:07:32;;;;;;;8.95;6.20;;;;;;;15.05;85.90;99677.75;5099988;28;20046;-67
2021/05/31 03:09:57;;;;;;;9.85;5.07;;;;;;;15.11;84.21;99682.31;5098664;28;20043;-64
2021/05/31 03:12:23;;;;;;;9.27;5.32;;;;;;;14.85;85.41;99682.91;5096483;28;20031;-63
2021/05/31 03:14:51;;;;;;;7.75;4.75;;;;;;;14.93;85.18;99684.63;5098722;28;20024;-66
2021/05/31 03:17:16;;;;;;;6.60;5.47;;;;;;;15.16;85.27;99689.75;5098798;28;20027;-67
2021/05/31 03:19:41;;;;;;;9.70;5.63;;;;;;;15.03;84.95;99685.13;5098946;28;20214;-66
2021/05/31 03:22:08;;;;;;;12.23;6.15;;;;;;;14.96;85.17;99682.41;5098672;28;20047;-63
2021/05/31 03:24:34;;;;;;;7.63;5.70;;;;;;;14.83;85.39;99682.28;5098521;28;20031;-65
2021/05/31 03:27:00;;;;;;;8.52;5.82;;;;;;;14.96;85.26;99678.91;5099356;28;20325;-66
2021/05/31 03:29:25;;;;;;;7.55;6.10;;;;;;;14.93;85.48;99685.44;5098076;28;20098;-66
2021/05/31 03:31:51;;;;;;;7.03;5.50;;;;;;;14.99;85.67;99682.00;5080130;28;20027;-65
2021/05/31 03:34:16;;;;;;;9.43;7.13;;;;;;;14.94;85.22;99679.09;5099343;28;20083;-66
2021/05/31 03:36:41;;;;;;;7.57;5.25;;;;;;;14.81;85.47;99678.16;5098697;28;20317;-65
2021/05/31 03:39:08;;;;;;;7.93;5.88;;;;;;;14.84;84.88;99680.44;5099303;28;20035;-65
2021/05/31 03:41:34;;;;;;;7.45;5.82;;;;;;;14.81;86.37;99678.16;5098795;28;20035;-65
2021/05/31 03:43:59;;;;;;;10.57;5.15;;;;;;;14.88;85.44;99677.19;5100958;28;20110;-65
2021/05/31 03:46:25;;;;;;;7.93;5.30;;;;;;;14.92;84.57;99677.66;5101084;28;20111;-66
2021/05/31 03:48:52;;;;;;;7.28;5.10;;;;;;;14.97;84.56;99672.56;5098557;28;20052;-65
2021/05/31 03:51:18;;;;;;;7.00;5.30;;;;;;;14.89;84.17;99672.69;5098035;28;20054;-65
2021/05/31 03:53:43;;;;;;;9.70;5.72;;;;;;;15.00;83.53;99688.19;5097956;28;20099;-64
2021/05/31 03:56:09;;;;;;;5.63;5.03;;;;;;;14.80;84.54;99689.84;5099008;28;20106;-63
2021/05/31 03:58:36;;;;;;;7.70;5.30;;;;;;;14.80;85.09;99682.66;5098193;28;20306;-65
2021/05/31 04:01:03;;;;;;;7.45;4.82;;;;;;;14.93;84.23;99688.13;5099052;28;20036;-65
2021/05/31 04:03:28;;;;;;;8.00;5.43;;;;;;;14.89;85.29;99680.69;5079877;28;20360;-65
2021/05/31 04:06:15;;;;;;;7.32;5.05;;;;;;;14.79;85.65;99681.00;5098103;28;20031;-66
2021/05/31 04:11:37;;;;;;;6.30;5.13;;;;;;;14.76;85.63;99699.22;5096772;28;20039;-65
2021/05/31 04:14:17;;;;;;;7.10;5.30;;;;;;;14.86;85.24;99705.06;5098791;28;20042;-66
2021/05/31 04:16:51;;;;;;;9.13;5.50;;;;;;;14.81;85.91;99702.16;5100277;28;20280;-65
2021/05/31 04:19:19;;;;;;;6.28;4.60;;;;;;;14.89;85.49;99707.34;5096796;28;20024;-65
2021/05/31 04:21:48;;;;;;;9.68;4.40;;;;;;;15.01;85.22;99708.50;5096695;28;20036;-66
2021/05/31 04:24:14;;;;;;;7.05;4.22;;;;;;;15.02;85.13;99710.13;5098679;28;20091;-66
2021/05/31 04:26:41;;;;;;;7.38;4.25;;;;;;;14.99;84.69;99706.00;5099770;28;20032;-66
2021/05/31 04:29:08;;;;;;;8.68;4.55;;;;;;;14.96;85.44;99697.56;5097941;28;20193;-65
2021/05/31 04:31:35;;;;;;;5.18;4.10;;;;;;;15.02;83.51;99704.81;5098974;28;20090;-66
2021/05/31 04:34:01;;;;;;;5.45;4.20;;;;;;;15.02;84.48;99688.81;5105132;28;20024;-66
2021/05/31 04:36:33;;;;;;;10.07;4.38;;;;;;;15.06;84.64;99708.75;5115203;28;20042;-65
2021/05/31 04:39:00;;;;;;;6.65;4.13;;;;;;;15.13;83.74;99703.47;5107341;28;20028;-66
2021/05/31 04:41:25;;;;;;;8.45;5.00;;;;;;;15.06;84.25;99707.91;5119222;28;20260;-66
2021/05/31 04:43:51;;;;;;;7.65;4.45;;;;;;;15.07;85.42;99705.06;5105291;28;20045;-66
2021/05/31 04:46:17;;;;;;;10.05;4.97;;;;;;;15.23;84.46;99712.78;5123000;28;20412;-66
2021/05/31 04:48:42;;;;;;;7.65;5.10;;;;;;;15.27;83.89;99706.03;5110394;28;20038;-66
2021/05/31 04:51:07;;;;;;;6.25;4.68;;;;;;;15.26;83.60;99709.72;5124373;28;20064;-65
2021/05/31 04:53:33;;;;;;;8.50;4.70;;;;;;;15.19;83.03;99705.34;5123113;28;20277;-65
2021/05/31 04:56:02;;;;;;;5.95;5.03;;;;;;;15.36;83.23;99712.06;5124252;28;20047;-66
2021/05/31 04:58:27;;;;;;;6.82;5.13;;;;;;;15.45;83.01;99715.41;5122360;28;20051;-65
2021/05/31 05:00:53;;;;;;;11.52;5.00;;;;;;;15.63;82.86;99716.63;5123396;28;20043;-66
2021/05/31 05:03:19;;;;;;;5.53;4.40;;;;;;;15.79;81.33;99718.16;5124955;28;20044;-65
2021/05/31 05:05:45;;;;;;;6.50;4.85;;;;;;;15.85;81.53;99719.22;5108902;28;20099;-66
2021/05/31 05:08:11;;;;;;;5.88;4.25;;;;;;;15.85;80.97;99717.38;5123929;28;20040;-65
2021/05/31 05:10:36;;;;;;;6.00;4.82;;;;;;;15.88;80.90;99726.84;5123069;28;20058;-65
2021/05/31 05:13:02;;;;;;;6.43;4.60;;;;;;;15.91;80.85;99726.44;5123728;28;20099;-65
2021/05/31 05:15:28;;;;;;;7.80;4.07;;;;;;;15.88;80.30;99727.66;5122647;28;20042;-66
2021/05/31 05:17:55;;;;;;;5.90;4.38;;;;;;;15.92;80.32;99734.25;5123670;28;20103;-65
2021/05/31 05:20:23;;;;;;;7.32;4.38;;;;;;;15.93;80.25;99735.91;5123578;28;20046;-65
2021/05/31 05:22:49;;;;;;;5.32;4.15;;;;;;;15.90;80.65;99741.66;5122732;28;20069;-66
2021/05/31 05:25:15;;;;;;;6.72;4.38;;;;;;;15.95;80.32;99739.22;5109688;28;20036;-67
2021/05/31 05:27:42;;;;;;;6.78;4.45;;;;;;;15.98;80.07;99739.84;5099579;28;20233;-65
2021/05/31 05:30:10;;;;;;;6.75;4.68;;;;;;;15.93;79.95;99738.59;5098204;28;20206;-66
2021/05/31 05:32:36;;;;;;;7.60;4.32;;;;;;;15.96;80.51;99745.38;5080673;28;20058;-66
2021/05/31 05:35:15;;;;;;;7.72;4.47;;;;;;;15.96;80.30;99743.53;5099236;28;20095;-65
2021/05/31 05:37:54;;;;;;;5.22;4.03;;;;;;;15.94;80.08;99737.56;5102021;28;20039;-65
2021/05/31 05:47:53;;;;;;;9.35;4.80;;;;;;;15.96;80.01;99742.72;5102825;28;20020;-65
2021/05/31 05:50:21;;;;;;;6.47;4.35;;;;;;;15.93;80.66;99741.25;5097638;28;20095;-66
2021/05/31 05:52:47;;;;;;;5.80;4.05;;;;;;;16.05;80.66;99748.72;5098901;28;20034;-65
2021/05/31 05:55:14;;;;;;;8.43;4.10;;;;;;;16.16;79.60;99751.66;5097639;28;20024;-65
2021/05/31 05:57:40;;;;;;;4.70;3.63;;;;;;;16.24;78.69;99746.13;5097576;28;20208;-65
2021/05/31 06:00:20;;;;;;;6.15;4.13;;;;;;;16.29;79.46;99748.22;5097698;28;20107;-66
2021/05/31 06:02:46;;;;;;;6.88;4.28;;;;;;;16.32;79.64;99742.47;5096765;28;20443;-66
2021/05/31 06:05:13;;;;;;;6.00;4.43;;;;;;;16.35;79.41;99744.75;5098653;28;20090;-65
2021/05/31 06:07:38;;;;;;;4.95;4.07;;;;;;;16.39;78.65;99737.97;5097546;28;20032;-66
2021/05/31 06:10:05;;;;;;;5.53;4.03;;;;;;;16.49;78.32;99741.09;5097713;28;20020;-66
2021/05/31 06:12:30;;;;;;;6.60;4.53;;;;;;;16.51;79.15;99736.38;5098746;28;20012;-66
2021/05/31 06:14:56;;;;;;;7.43;4.20;;;;;;;16.55;78.09;99729.59;5096792;28;20097;-65
2021/05/31 06:17:21;;;;;;;6.60;4.03;;;;;;;16.47;79.19;99740.47;5097146;28;20028;-66
2021/05/31 06:19:47;;;;;;;7.38;4.15;;;;;;;16.40;79.97;99739.63;5099632;28;20042;-66
2021/05/31 06:22:13;;;;;;;7.25;5.00;;;;;;;16.49;79.94;99743.78;5103446;28;20032;-65
2021/05/31 06:24:39;;;;;;;8.23;4.80;;;;;;;16.43;79.10;99736.56;5108500;28;20050;-66
2021/05/31 06:27:05;;;;;;;6.05;4.70;;;;;;;16.57;79.26;99740.09;5120370;28;20214;-65
2021/05/31 06:29:31;;;;;;;7.03;4.55;;;;;;;16.46;78.72;99738.00;5103849;28;20395;-65
2021/05/31 06:31:57;;;;;;;7.43;3.72;;;;;;;16.42;78.68;99737.59;5096891;28;20032;-65
2021/05/31 06:34:22;;;;;;;6.53;4.03;;;;;;;16.55;77.54;99736.81;5097173;28;20328;-65
2021/05/31 06:36:53;;;;;;;8.45;5.18;;;;;;;16.46;78.54;99740.69;5098290;28;20082;-65
2021/05/31 06:39:18;;;;;;;5.47;3.83;;;;;;;16.40;77.48;99736.97;5097618;28;20020;-66
2021/05/31 06:41:44;;;;;;;6.45;4.85;;;;;;;16.35;78.61;99746.59;5097134;28;20357;-65
2021/05/31 06:44:09;;;;;;;8.45;5.00;;;;;;;16.47;78.88;99740.47;5095473;28;20028;-66
2021/05/31 06:46:35;;;;;;;6.20;4.60;;;;;;;16.53;77.96;99744.19;5097827;28;20032;-65
2021/05/31 06:49:00;;;;;;;5.35;4.38;;;;;;;16.61;78.81;99739.50;5096374;28;20042;-65
2021/05/31 06:51:26;;;;;;;5.55;4.43;;;;;;;16.62;79.60;99729.63;5096448;28;20034;-66
2021/05/31 06:53:51;;;;;;;7.40;4.30;;;;;;;16.52;78.12;99737.19;5096365;28;20032;-65
2021/05/31 06:56:19;;;;;;;5.40;4.43;;;;;;;16.71;78.46;99730.31;5097572;28;20063;-65
2021/05/31 06:58:44;;;;;;;6.38;4.35;;;;;;;16.84;77.79;99749.06;5096230;28;20346;-66
2021/05/31 07:01:10;;;;;;;7.75;4.55;;;;;;;16.78;78.18;99742.69;5095824;28;20031;-65
2021/05/31 07:03:37;;;;;;;8.55;3.90;;;;;;;16.86;78.42;99739.81;5097764;28;20050;-66
2021/05/31 07:06:03;;;;;;;4.43;3.55;;;;;;;16.99;78.23;99740.88;5100192;28;20360;-66
2021/05/31 07:08:30;;;;;;;6.13;4.00;;;;;;;16.80;78.51;99737.13;5100958;28;20035;-66
2021/05/31 07:10:57;;;;;;;5.22;4.38;;;;;;;16.83;78.02;99737.56;5096314;28;20046;-67
2021/05/31 07:13:23;;;;;;;4.35;3.58;;;;;;;16.85;77.74;99735.50;5097212;28;20032;-65
2021/05/31 07:15:53;;;;;;;7.65;4.55;;;;;;;16.74;78.12;99725.41;5097480;28;20031;-66
2021/05/31 07:18:19;;;;;;;5.22;3.92;;;;;;;16.88;76.45;99732.44;5095326;28;20260;-66
2021/05/31 07:20:49;;;;;;;8.35;4.03;;;;;;;16.77;77.51;99733.03;5095899;28;20058;-67
2021/05/31 07:23:17;;;;;;;5.32;3.80;;;;;;;16.81;77.26;99728.91;5095162;28;20069;-66
2021/05/31 07:25:43;;;;;;;6.07;4.68;;;;;;;16.79;78.22;99733.63;5097383;28;20020;-65
2021/05/31 07:28:09;;;;;;;5.75;4.80;;;;;;;16.81;78.84;99728.91;5095883;28;20334;-66
2021/05/31 07:30:34;;;;;;;5.20;4.20;;;;;;;17.05;78.63;99724.00;5095379;28;20029;-65
2021/05/31 07:33:01;;;;;;;7.80;4.10;;;;;;;17.05;77.95;99729.34;5096117;28;20252;-66
2021/05/31 07:35:26;;;;;;;6.50;4.45;;;;;;;16.91;77.97;99725.84;5096870;28;20055;-66
2021/05/31 07:37:52;;;;;;;6.90;4.63;;;;;;;16.94;78.39;99730.78;5095305;28;20087;-66
2021/05/31 07:40:18;;;;;;;6.40;4.55;;;;;;;16.87;79.82;99724.59;5095439;28;20217;-65
2021/05/31 07:42:44;;;;;;;8.32;4.30;;;;;;;16.86;77.78;99725.63;5077636;28;20077;-66
2021/05/31 07:45:12;;;;;;;9.18;4.32;;;;;;;16.94;77.44;99724.63;5096109;28;20059;-66
2021/05/31 07:47:37;;;;;;;5.57;3.95;;;;;;;16.75;78.46;99724.38;5095425;28;20330;-66
2021/05/31 07:50:04;;;;;;;4.93;3.97;;;;;;;16.79;78.23;99730.97;5095661;28;20054;-66
2021/05/31 07:52:30;;;;;;;6.80;4.05;;;;;;;16.86;78.08;99726.44;5095192;28;20065;-65
2021/05/31 07:54:56;;;;;;;5.80;4.25;;;;;;;16.98;78.34;99724.00;5096230;28;20044;-66
2021/05/31 07:57:24;;;;;;;7.55;5.03;;;;;;;16.95;78.35;99727.09;5097445;28;20031;-66
2021/05/31 07:59:51;;;;;;;6.18;4.07;;;;;;;16.95;76.76;99724.41;5100587;28;20228;-66
2021/05/31 08:02:17;;;;;;;7.90;4.70;;;;;;;16.92;78.09;99724.81;5099034;28;20016;-66
2021/05/31 08:04:42;;;;;;;4.90;4.32;;;;;;;17.11;77.28;99729.38;5095163;28;20067;-66
2021/05/31 08:07:09;;;;;;;4.30;3.90;;;;;;;17.11;78.10;99725.88;5095542;28;20034;-66
2021/05/31 08:09:35;;;;;;;6.30;4.22;;;;;;;17.06;77.07;99715.78;5101180;28;20024;-65
2021/05/31 08:12:00;;;;;;;6.55;4.18;;;;;;;17.17;76.56;99725.03;5102717;28;20024;-65
2021/05/31 08:14:26;;;;;;;4.97;4.47;;;;;;;17.05;77.77;99732.84;5101880;28;20039;-65
2021/05/31 08:16:54;;;;;;;10.15;4.38;;;;;;;17.13;76.86;99729.16;5102055;28;20073;-65
2021/05/31 08:19:20;;;;;;;4.90;4.25;;;;;;;17.23;76.42;99737.59;5101955;28;20042;-66
2021/05/31 08:21:47;;;;;;;6.57;4.55;;;;;;;17.14;76.85;99736.97;5103421;28;20035;-65
2021/05/31 08:24:13;;;;;;;7.22;4.75;;;;;;;17.09;77.52;99739.44;5089206;28;20214;-65
2021/05/31 08:26:41;;;;;;;8.85;4.72;;;;;;;17.14;77.15;99726.28;5105157;28;20040;-65
2021/05/31 08:29:07;;;;;;;6.40;5.38;;;;;;;17.13;77.77;99731.84;5101796;28;20145;-66
2021/05/31 08:31:33;;;;;;;6.45;5.03;;;;;;;17.16;78.07;99728.75;5104309;28;20039;-66
2021/05/31 08:33:59;;;;;;;8.68;5.43;;;;;;;17.20;78.07;99727.31;5102437;28;20089;-65
2021/05/31 08:36:24;;;;;;;7.38;5.03;;;;;;;17.17;78.46;99730.41;5107413;28;20036;-66
2021/05/31 08:38:52;;;;;;;7.97;5.18;;;;;;;17.21;77.58;99729.78;5111157;28;20039;-66
2021/05/31 08:41:18;;;;;;;7.72;5.25;;;;;;;17.24;78.08;99729.38;5122147;28;20239;-66
2021/05/31 08:43:44;;;;;;;7.32;5.15;;;;;;;17.24;78.21;99737.41;5113148;28;20028;-65
2021/05/31 08:46:09;;;;;;;8.00;4.68;;;;;;;17.20;79.28;99732.66;5126543;28;20435;-65
2021/05/31 08:48:36;;;;;;;6.70;5.22;;;;;;;17.13;79.22;99731.84;5125226;28;20064;-66
2021/05/31 08:51:01;;;;;;;8.73;5.30;;;;;;;17.14;78.25;99734.31;5121002;28;20078;-65
2021/05/31 08:53:27;;;;;;;8.35;5.50;;;;;;;17.23;79.00;99730.41;5117621;28;20032;-65
2021/05/31 08:55:52;;;;;;;4.18;3.20;;;;;;;17.19;75.76;99733.69;5125840;28;20019;-65
2021/05/31 08:58:19;;;;;;;6.93;4.22;;;;;;;17.27;76.13;99733.50;5127473;28;20024;-65
2021/05/31 09:00:44;;;;;;;7.45;4.00;;;;;;;17.37;76.83;99733.06;5127057;28;20032;-65
2021/05/31 09:03:10;;;;;;;7.75;4.28;;;;;;;17.29;77.52;99731.44;5126933;28;20066;-66
2021/05/31 09:05:38;;;;;;;9.10;3.90;;;;;;;17.26;77.20;99733.69;5127019;28;20019;-65
2021/05/31 09:08:06;;;;;;;4.38;2.90;;;;;;;17.32;75.64;99736.38;5122067;28;20045;-65
2021/05/31 09:10:45;;;;;;;3.15;2.85;;;;;;;17.40;74.44;99740.69;5118450;28;20065;-65
2021/05/31 09:13:12;;;;;;;7.47;3.10;;;;;;;17.42;76.00;99738.63;5126943;28;20102;-66
2021/05/31 09:15:39;;;;;;;4.53;3.47;;;;;;;17.62;73.23;99736.75;5127817;28;20263;-66
2021/05/31 09:18:05;;;;;;;2.25;2.03;;;;;;;17.67;71.20;99726.28;5124793;28;20038;-65
2021/05/31 09:20:32;;;;;;;2.70;1.90;;;;;;;17.73;70.38;99724.66;5099981;28;20015;-65
2021/05/31 09:22:57;;;;;;;4.57;2.55;;;;;;;17.86;70.02;99728.13;5101847;28;20107;-65
2021/05/31 09:25:31;;;;;;;3.67;2.33;;;;;;;17.90;67.67;99731.22;5103120;28;20370;-65
2021/05/31 09:27:59;;;;;;;3.70;2.30;;;;;;;17.93;69.15;99722.75;5100507;28;20031;-66
2021/05/31 09:30:36;;;;;;;3.42;2.03;;;;;;;18.03;68.56;99731.19;5101162;28;20060;-65
2021/05/31 09:33:02;;;;;;;3.15;2.05;;;;;;;18.14;68.17;99725.16;5083056;28;20052;-65
2021/05/31 09:35:28;;;;;;;3.47;2.60;;;;;;;18.19;67.74;99725.34;5102883;28;20025;-66
2021/05/31 09:37:53;;;;;;;3.22;2.25;;;;;;;18.19;64.95;99724.53;5102825;28;20348;-65
2021/05/31 09:40:23;;;;;;;5.10;2.72;;;;;;;18.26;67.33;99728.00;5101964;28;20024;-66
2021/05/31 09:43:00;;;;;;;2.90;2.63;;;;;;;18.33;70.32;99722.63;5103945;28;20024;-65
2021/05/31 09:45:29;;;;;;;3.40;1.80;;;;;;;18.27;69.27;99724.28;5103084;28;20040;-66
2021/05/31 09:47:58;;;;;;;1.92;1.73;;;;;;;18.20;69.09;99720.81;5103608;28;20191;-66
2021/05/31 09:50:26;;;;;;;3.40;1.92;;;;;;;18.09;69.59;99716.13;5104329;28;20031;-65
2021/05/31 09:53:06;;;;;;;5.70;2.83;;;;;;;18.10;70.23;99718.59;5104051;28;20302;-65
2021/05/31 09:55:33;;;;;;;3.28;2.83;;;;;;;18.14;71.02;99721.66;5103555;28;20039;-66
2021/05/31 09:57:59;;;;;;;3.10;2.50;;;;;;;18.30;70.82;99712.31;5086969;28;20031;-66
2021/05/31 10:00:29;;;;;;;5.57;2.50;;;;;;;18.43;69.68;99709.59;5103871;28;20028;-65
2021/05/31 10:10:55;;;;;;;4.20;1.63;;;;;;;18.55;64.79;99702.50;5103234;28;20078;-66
2021/05/31 10:13:22;;;;;;;4.78;2.03;;;;;;;18.63;66.93;99693.41;5103304;28;20032;-66
2021/05/31 10:15:49;;;;;;;5.47;2.80;;;;;;;18.52;68.83;99695.72;5103604;28;20309;-66
2021/05/31 10:18:16;;;;;;;6.40;2.95;;;;;;;18.38;69.35;99696.81;5103443;28;20110;-65
2021/05/31 10:20:43;;;;;;;6.15;2.88;;;;;;;18.32;68.00;99689.63;5103054;28;20055;-66
2021/05/31 10:23:10;;;;;;;4.95;3.47;;;;;;;18.28;68.76;99695.63;5103259;28;20089;-66
2021/05/31 10:25:40;;;;;;;7.95;4.13;;;;;;;18.32;70.85;99695.00;5103444;28;20027;-65
2021/05/31 10:28:09;;;;;;;7.57;3.90;;;;;;;18.36;71.13;99690.03;5103740;28;20419;-66
2021/05/31 10:30:43;;;;;;;5.82;4.43;;;;;;;18.50;71.24;99684.38;5101426;28;20031;-66
2021/05/31 10:33:13;;;;;;;8.00;5.20;;;;;;;18.49;71.33;99685.41;5121529;28;20048;-66
2021/05/31 10:35:40;;;;;;;7.57;4.93;;;;;;;18.56;70.70;99682.69;5111889;28;20046;-65
2021/05/31 10:38:11;;;;;;;8.68;4.72;;;;;;;18.56;68.79;99677.34;5084760;28;20076;-65
2021/05/31 10:40:42;;;;;;;5.47;4.22;;;;;;;18.64;69.18;99673.63;5103354;28;20049;-66
2021/05/31 10:43:10;;;;;;;6.00;4.18;;;;;;;18.70;67.69;99672.75;5102776;28;20047;-66
2021/05/31 10:45:37;;;;;;;8.48;4.10;;;;;;;18.88;69.51;99674.72;5102445;28;20032;-66
2021/05/31 10:48:17;;;;;;;5.18;3.67;;;;;;;18.95;68.82;99665.59;5117132;28;20031;-65
2021/05/31 10:50:47;;;;;;;8.73;4.35;;;;;;;19.06;67.52;99669.41;5102967;28;20032;-65
2021/05/31 10:55:53;;;;;;;3.47;3.00;;;;;;;19.17;67.47;99660.66;5102823;28;20032;-65
2021/05/31 10:58:21;;;;;;;;;;;;;;;19.35;66.28;99660.69;5103281;28;20032;-65
2021/05/31 11:01:08;;;;;;;4.88;3.60;;;;;;;19.33;68.95;99660.09;5102882;28;19919;-65
2021/05/31 11:04:15;;;;;;;8.50;4.25;;;;;;;19.62;65.81;99652.41;5102464;28;20345;-65
2021/05/31 11:06:43;;;;;;;14.32;4.30;;;;;;;19.54;65.70;99656.19;5076853;28;20264;-66
2021/05/31 11:09:19;;;;;;;7.05;3.72;;;;;;;19.69;62.43;99648.59;5102253;28;20084;-66
2021/05/31 11:11:53;;;;;;;4.68;3.83;;;;;;;19.71;61.88;99643.81;5100384;28;20150;-65
2021/05/31 11:14:39;;;;;;;5.05;4.45;;;;;;;19.59;66.58;99647.47;5097983;28;20103;-66
2021/05/31 11:17:11;;;;;;;5.75;4.28;;;;;;;19.65;64.76;99650.09;5098280;28;20088;-65
2021/05/31 11:19:38;;;;;;;5.88;4.57;;;;;;;19.70;65.57;99644.06;5098300;28;20038;-66
2021/05/31 11:22:24;;;;;;;7.95;5.80;;;;;;;19.67;65.81;99644.50;5097798;28;20036;-66
2021/05/31 11:24:49;;;;;;;6.43;4.80;;;;;;;19.72;65.07;99639.28;5099977;28;20072;-66
2021/05/31 11:27:15;;;;;;;6.28;4.88;;;;;;;19.65;65.11;99631.28;5100190;28;20667;-66
2021/05/31 11:29:40;;;;;;;5.55;4.30;;;;;;;19.67;64.17;99637.25;5098704;28;20059;-66
2021/05/31 11:32:06;;;;;;;8.73;5.13;;;;;;;19.66;64.74;99648.22;5097374;28;20032;-66
2021/05/31 11:34:32;;;;;;;6.05;4.85;;;;;;;19.40;65.21;99638.56;5097179;28;20212;-66
2021/05/31 11:36:59;;;;;;;6.75;4.68;;;;;;;19.37;64.24;99610.28;5097357;28;20039;-67
2021/05/31 11:39:30;;;;;;;8.88;4.65;;;;;;;19.61;62.97;99624.72;5098777;28;20121;-66
2021/05/31 11:41:56;;;;;;;7.75;5.32;;;;;;;19.61;62.50;99638.16;5097378;28;20047;-66
2021/05/31 11:44:27;;;;;;;5.97;5.18;;;;;;;19.57;63.23;99626.22;5096676;28;20024;-66
2021/05/31 11:46:55;;;;;;;6.95;5.75;;;;;;;19.57;64.55;99628.91;5096460;28;20103;-66
2021/05/31 11:49:23;;;;;;;6.45;5.20;;;;;;;19.34;63.18;99634.88;5097373;28;20268;-66
2021/05/31 11:52:02;;;;;;;7.13;5.32;;;;;;;19.40;63.20;99633.19;5100535;28;20031;-66
2021/05/31 11:54:34;;;;;;;5.63;4.47;;;;;;;19.39;66.02;99629.66;5100367;28;20035;-66
2021/05/31 11:57:08;;;;;;;8.23;4.80;;;;;;;19.52;64.27;99622.53;5079941;28;20043;-65